Pentre, United Kingdom
Current Conditions -  °F | °C
As of 1:50 PM on Friday 31 Oct 2014 (Local Time) from EGDX Reporting Station
Clear Clear  
Wind Chill: 64°   Ceiling: Unl
Heat Index: 64°   Visibility: 6mi
Dew Point: 59°   Wind: 13mph
Humidity: 83%   Direction: 160°SSE
Pressure: 29.85"   Gusts: NA
Location:  51.65°N, 3.49°W
Report Text: EGDX 311350Z 16011KT CAVOK 18/15 Q1011 BLU
Loading
Personal Weather Stations






























Interactive Weather Map
Tropical Storm Tracking
New forecast layout! Learn more

10-Day Weather Forecast

Advertisements
Track Severe Weather on mobile